createdAt,value
2018-09-28T00:00:15.787Z,81.85
2018-09-28T00:02:44.170Z,82.00
2018-09-28T00:05:12.517Z,81.83
2018-09-28T00:07:42.076Z,82.00
2018-09-28T00:10:10.470Z,82.00
2018-09-28T00:12:38.831Z,82.27
2018-09-28T00:15:07.209Z,82.13
2018-09-28T00:17:35.570Z,82.74
2018-09-28T00:20:03.928Z,82.01
2018-09-28T00:22:32.317Z,82.68
2018-09-28T00:25:00.676Z,82.35
2018-09-28T00:28:08.735Z,82.89
2018-09-28T00:30:37.198Z,82.59
2018-09-28T00:33:05.574Z,82.72
2018-09-28T00:35:33.951Z,83.27
2018-09-28T00:38:02.544Z,83.01
2018-09-28T00:40:30.880Z,83.06
2018-09-28T00:42:59.248Z,83.14
2018-09-28T00:45:27.599Z,83.15
2018-09-28T00:47:55.928Z,83.44
2018-09-28T00:50:24.316Z,83.33
2018-09-28T00:52:52.713Z,82.98
2018-09-28T00:55:21.117Z,83.48
2018-09-28T00:57:49.484Z,83.44
2018-09-28T01:00:18.896Z,82.70
2018-09-28T01:02:47.236Z,83.09
2018-09-28T01:05:15.641Z,83.49
2018-09-28T01:07:44.084Z,83.61
2018-09-28T01:10:12.517Z,83.15
2018-09-28T01:12:40.857Z,83.94
2018-09-28T01:15:09.201Z,83.60
2018-09-28T01:17:37.996Z,83.57
2018-09-28T01:20:06.658Z,83.59
2018-09-28T01:22:35.089Z,83.42
2018-09-28T01:25:05.616Z,84.37
2018-09-28T01:27:33.954Z,83.61
2018-09-28T01:30:02.328Z,83.50
2018-09-28T01:32:30.888Z,84.22
2018-09-28T01:34:59.268Z,83.52
2018-09-28T01:37:27.600Z,84.39
2018-09-28T01:39:55.972Z,84.33
2018-09-28T01:42:24.363Z,84.30
2018-09-28T01:44:52.744Z,84.26
2018-09-28T01:47:21.077Z,84.20
2018-09-28T01:49:49.442Z,84.09
2018-09-28T01:52:17.823Z,84.36
2018-09-28T01:54:46.180Z,84.36
2018-09-28T01:57:14.557Z,83.93
2018-09-28T01:59:42.962Z,83.90
2018-09-28T02:02:11.353Z,84.15
2018-09-28T02:04:39.708Z,84.75
2018-09-28T02:07:08.078Z,84.95
2018-09-28T02:09:36.468Z,84.27
2018-09-28T02:12:04.815Z,84.99
2018-09-28T02:14:33.187Z,84.91
2018-09-28T02:17:01.528Z,84.76
2018-09-28T02:19:29.929Z,85.13
2018-09-28T02:21:58.264Z,85.03
2018-09-28T02:24:26.610Z,85.66
2018-09-28T02:26:54.960Z,85.44
2018-09-28T02:29:23.384Z,85.31
2018-09-28T02:31:51.736Z,85.42
2018-09-28T02:34:20.111Z,85.59
2018-09-28T02:36:48.550Z,85.55
2018-09-28T02:39:16.906Z,84.41
2018-09-28T02:41:45.277Z,85.50
2018-09-28T02:44:13.630Z,85.59
2018-09-28T02:46:42.013Z,85.16
2018-09-28T02:49:10.370Z,85.73
2018-09-28T02:51:38.745Z,85.59
2018-09-28T02:54:07.094Z,85.22
2018-09-28T02:56:35.522Z,85.42
2018-09-28T02:59:03.936Z,85.73
2018-09-28T03:01:32.297Z,85.86
2018-09-28T03:04:00.667Z,86.24
2018-09-28T03:06:29.326Z,85.60
2018-09-28T03:08:57.919Z,85.65
2018-09-28T03:11:26.322Z,85.22
2018-09-28T03:13:54.734Z,85.19
2018-09-28T03:16:23.078Z,85.24
2018-09-28T03:18:51.484Z,85.59
2018-09-28T03:21:19.891Z,85.79
2018-09-28T03:23:48.270Z,85.67
2018-09-28T03:26:16.600Z,86.43
2018-09-28T03:28:44.954Z,86.02
2018-09-28T03:31:13.270Z,86.07
2018-09-28T03:33:41.679Z,86.32
2018-09-28T03:36:10.099Z,85.88
2018-09-28T03:38:39.002Z,86.58
2018-09-28T03:41:07.320Z,86.33
2018-09-28T03:43:35.773Z,85.81
2018-09-28T03:46:04.124Z,86.24
2018-09-28T03:48:32.719Z,85.78
2018-09-28T03:51:01.127Z,86.26
2018-09-28T03:53:29.454Z,86.42
2018-09-28T03:55:57.799Z,86.50
2018-09-28T03:58:26.187Z,86.33
2018-09-28T04:00:54.558Z,86.60
2018-09-28T04:03:22.907Z,86.84
2018-09-28T04:05:51.281Z,87.21
2018-09-28T04:08:19.758Z,86.92
2018-09-28T04:10:48.105Z,86.40
2018-09-28T04:13:16.424Z,86.51
2018-09-28T04:15:44.795Z,86.83
2018-09-28T04:18:35.600Z,86.47
2018-09-28T04:21:06.339Z,86.72
2018-09-28T04:23:34.672Z,86.91
2018-09-28T04:26:03.064Z,87.00
2018-09-28T04:28:31.415Z,87.23
2018-09-28T04:31:00.884Z,86.81
2018-09-28T04:33:29.248Z,86.54
2018-09-28T04:35:57.654Z,86.50
2018-09-28T04:38:26.080Z,86.30
2018-09-28T04:40:54.415Z,86.48
2018-09-28T04:43:22.805Z,85.79
2018-09-28T04:45:51.402Z,86.18
2018-09-28T04:48:19.762Z,86.26
2018-09-28T04:50:48.118Z,85.82
2018-09-28T04:53:16.476Z,85.88
2018-09-28T04:55:45.976Z,85.71
2018-09-28T04:58:14.663Z,85.60
2018-09-28T05:00:42.993Z,85.16
2018-09-28T05:03:11.409Z,85.17
2018-09-28T05:05:39.835Z,85.90
2018-09-28T05:08:08.227Z,85.28
2018-09-28T05:10:36.619Z,84.77
2018-09-28T05:13:05.134Z,84.74
2018-09-28T05:15:33.463Z,84.85
2018-09-28T05:18:02.635Z,84.86
2018-09-28T05:20:30.985Z,84.88
2018-09-28T05:22:59.339Z,85.18
2018-09-28T05:25:27.822Z,85.33
2018-09-28T05:27:56.159Z,85.62
2018-09-28T05:30:24.551Z,85.81
2018-09-28T05:32:52.979Z,85.53
2018-09-28T05:35:21.280Z,85.20
2018-09-28T05:37:49.631Z,86.01
2018-09-28T05:40:18.077Z,85.03
2018-09-28T05:42:47.306Z,85.52
2018-09-28T05:45:15.797Z,85.51
2018-09-28T05:47:44.348Z,85.63
2018-09-28T05:50:12.736Z,85.43
2018-09-28T05:52:41.106Z,85.70
2018-09-28T05:55:09.500Z,86.37
2018-09-28T05:57:37.868Z,86.42
2018-09-28T06:00:11.520Z,86.40
2018-09-28T06:02:45.310Z,86.60
2018-09-28T06:05:19.176Z,85.63
2018-09-28T06:07:47.525Z,86.20
2018-09-28T06:10:15.987Z,85.16
2018-09-28T06:12:44.335Z,85.57
2018-09-28T06:15:12.653Z,86.04
2018-09-28T06:17:41.036Z,86.21
2018-09-28T06:20:09.400Z,85.93
2018-09-28T06:22:37.792Z,85.10
2018-09-28T06:25:06.581Z,85.26
2018-09-28T06:27:34.936Z,84.78
2018-09-28T06:30:03.373Z,84.71
2018-09-28T06:32:31.719Z,84.99
2018-09-28T06:35:04.024Z,85.49
2018-09-28T06:37:33.210Z,85.09
2018-09-28T06:40:01.507Z,84.96
2018-09-28T06:42:29.922Z,85.06
2018-09-28T06:44:58.284Z,85.08
2018-09-28T06:47:26.669Z,85.00
2018-09-28T06:49:55.060Z,84.96
2018-09-28T06:52:23.412Z,85.08
2018-09-28T06:54:51.788Z,84.57
2018-09-28T06:57:20.625Z,84.81
2018-09-28T06:59:49.074Z,85.42
2018-09-28T07:02:17.403Z,85.74
2018-09-28T07:04:45.956Z,84.86
2018-09-28T07:07:14.485Z,84.91
2018-09-28T07:09:42.825Z,85.13
2018-09-28T07:12:11.255Z,85.64
2018-09-28T07:14:39.593Z,85.70
2018-09-28T07:17:08.092Z,86.12
2018-09-28T07:19:36.653Z,86.12
2018-09-28T07:22:05.088Z,86.30
2018-09-28T07:24:33.517Z,85.92
2018-09-28T07:27:01.819Z,86.49
2018-09-28T07:29:30.179Z,86.44
2018-09-28T07:31:58.533Z,85.56
2018-09-28T07:34:26.961Z,85.77
2018-09-28T07:36:55.409Z,84.98
2018-09-28T07:39:23.766Z,85.24
2018-09-28T07:41:52.140Z,84.65
2018-09-28T07:44:20.631Z,83.34
2018-09-28T07:46:48.962Z,83.25
2018-09-28T07:49:17.356Z,81.91
2018-09-28T07:51:45.635Z,82.57
2018-09-28T07:54:14.048Z,82.07
2018-09-28T07:56:42.556Z,81.67
2018-09-28T07:59:10.903Z,81.44
2018-09-28T08:01:39.226Z,80.71
2018-09-28T08:04:07.925Z,80.42
2018-09-28T08:09:18.207Z,80.45
2018-09-28T08:11:47.068Z,80.45
2018-09-28T08:14:15.397Z,80.15
2018-09-28T08:16:44.032Z,80.81
2018-09-28T08:19:12.400Z,80.92
2018-09-28T08:21:40.776Z,81.82
2018-09-28T08:24:09.213Z,82.09
2018-09-28T08:26:37.691Z,82.70
2018-09-28T08:29:06.290Z,83.55
2018-09-28T08:31:34.733Z,83.38
2018-09-28T08:34:03.117Z,84.00
2018-09-28T08:36:31.558Z,83.91
2018-09-28T08:38:59.827Z,84.79
2018-09-28T08:41:28.233Z,85.42
2018-09-28T08:43:56.674Z,86.50
2018-09-28T08:46:25.010Z,86.21
2018-09-28T08:48:53.326Z,87.15
2018-09-28T08:51:21.702Z,88.13
2018-09-28T08:53:50.309Z,88.17
2018-09-28T08:56:18.689Z,88.28
2018-09-28T08:58:47.336Z,88.98
2018-09-28T09:01:15.801Z,88.77
2018-09-28T09:03:44.267Z,88.56
2018-09-28T09:06:12.823Z,87.57
2018-09-28T09:08:41.209Z,87.27
2018-09-28T09:11:09.561Z,86.29
2018-09-28T09:13:38.240Z,86.72
2018-09-28T09:16:06.625Z,85.75
2018-09-28T09:18:35.966Z,85.59
2018-09-28T09:21:04.427Z,85.20
2018-09-28T09:23:32.845Z,84.94
2018-09-28T09:26:01.314Z,85.62
2018-09-28T09:28:30.248Z,85.25
2018-09-28T09:30:58.607Z,84.81
2018-09-28T09:33:27.096Z,85.30
2018-09-28T09:35:55.731Z,86.01
2018-09-28T09:38:24.232Z,86.14
2018-09-28T09:40:52.711Z,86.16
2018-09-28T09:43:21.117Z,87.03
2018-09-28T09:45:49.489Z,86.56
2018-09-28T09:48:17.922Z,85.97
2018-09-28T09:50:46.339Z,85.54
2018-09-28T09:53:14.824Z,85.17
2018-09-28T09:55:43.189Z,83.39
2018-09-28T09:58:13.556Z,84.13
2018-09-28T10:00:48.501Z,82.31
2018-09-28T10:03:22.042Z,81.87
2018-09-28T10:05:50.431Z,81.71
2018-09-28T10:08:19.044Z,79.76
2018-09-28T10:10:47.413Z,79.23
2018-09-28T10:13:15.873Z,79.21
2018-09-28T10:15:44.265Z,78.65
2018-09-28T10:18:12.593Z,78.94
2018-09-28T10:20:40.931Z,78.27
2018-09-28T10:23:09.408Z,78.34
2018-09-28T10:25:37.740Z,77.09
2018-09-28T10:28:06.252Z,77.52
2018-09-28T10:30:34.545Z,76.67
2018-09-28T10:33:02.914Z,76.12
2018-09-28T10:35:31.218Z,75.85
2018-09-28T10:37:59.809Z,76.02
2018-09-28T10:40:29.477Z,75.06
2018-09-28T10:42:57.707Z,75.35
2018-09-28T10:45:26.089Z,74.61
2018-09-28T10:47:54.415Z,74.23
2018-09-28T10:50:22.763Z,73.31
2018-09-28T10:52:51.170Z,72.87
2018-09-28T10:55:19.459Z,72.77
2018-09-28T10:57:47.848Z,72.55
2018-09-28T11:00:16.336Z,72.34
2018-09-28T11:02:44.733Z,72.34
2018-09-28T11:05:13.122Z,71.89
2018-09-28T11:07:41.651Z,71.95
2018-09-28T11:10:10.169Z,70.76
2018-09-28T11:12:38.561Z,70.71
2018-09-28T11:15:06.960Z,70.62
2018-09-28T11:17:35.284Z,69.77
2018-09-28T11:20:04.531Z,69.06
2018-09-28T11:22:32.932Z,68.85
2018-09-28T11:25:01.298Z,68.29
2018-09-28T11:27:29.652Z,66.85
2018-09-28T11:29:58.056Z,66.82
2018-09-28T11:32:26.392Z,65.80
2018-09-28T11:34:54.739Z,65.08
2018-09-28T11:37:23.067Z,65.21
2018-09-28T11:39:51.438Z,63.98
2018-09-28T11:42:19.812Z,63.72
2018-09-28T11:44:48.122Z,62.94
2018-09-28T11:47:16.481Z,61.00
2018-09-28T11:49:44.826Z,60.91
2018-09-28T11:52:13.182Z,60.69
2018-09-28T11:54:42.103Z,59.38
2018-09-28T11:57:10.471Z,59.94
2018-09-28T11:59:38.822Z,58.15
2018-09-28T12:02:07.605Z,58.95
2018-09-28T12:04:35.953Z,58.19
2018-09-28T12:07:04.333Z,58.16
2018-09-28T12:09:32.709Z,58.40
2018-09-28T12:12:01.077Z,58.14
2018-09-28T12:14:29.444Z,57.89
2018-09-28T12:16:57.772Z,58.11
2018-09-28T12:19:26.141Z,57.66
2018-09-28T12:21:54.492Z,58.73
2018-09-28T12:24:23.050Z,57.19
2018-09-28T12:26:51.441Z,56.42
2018-09-28T12:29:19.765Z,57.18
2018-09-28T12:31:48.213Z,56.01
2018-09-28T12:34:16.550Z,56.26
2018-09-28T12:36:45.023Z,54.62
2018-09-28T12:39:13.677Z,55.53
2018-09-28T12:41:42.457Z,55.14
2018-09-28T12:44:12.073Z,55.36
2018-09-28T12:46:40.432Z,54.90
2018-09-28T12:49:08.804Z,54.44
2018-09-28T12:51:37.259Z,53.21
2018-09-28T12:54:05.890Z,52.53
2018-09-28T12:56:34.316Z,52.54
2018-09-28T12:59:02.674Z,52.28
2018-09-28T13:01:31.013Z,52.12
2018-09-28T13:03:59.351Z,53.44
2018-09-28T13:06:27.723Z,53.26
2018-09-28T13:08:56.056Z,54.65
2018-09-28T13:11:24.403Z,54.64
2018-09-28T13:13:52.769Z,55.04
2018-09-28T13:16:21.159Z,55.06
2018-09-28T13:18:49.585Z,54.91
2018-09-28T13:21:17.941Z,54.85
2018-09-28T13:23:46.279Z,54.58
2018-09-28T13:26:14.645Z,53.40
2018-09-28T13:28:42.981Z,53.32
2018-09-28T13:31:11.301Z,53.55
2018-09-28T13:33:39.716Z,53.02
2018-09-28T13:36:08.168Z,53.06
2018-09-28T13:38:36.663Z,53.04
2018-09-28T13:41:04.879Z,53.70
2018-09-28T13:43:33.225Z,53.64
2018-09-28T13:46:01.803Z,53.87
2018-09-28T13:48:30.163Z,53.22
2018-09-28T13:50:58.498Z,52.54
2018-09-28T13:53:26.860Z,52.74
2018-09-28T13:55:55.196Z,51.78
2018-09-28T13:58:23.611Z,51.87
2018-09-28T14:00:51.954Z,51.51
2018-09-28T14:03:20.319Z,50.51
2018-09-28T14:05:48.650Z,47.52
2018-09-28T14:08:17.028Z,46.95
2018-09-28T14:10:45.376Z,45.85
2018-09-28T14:13:13.876Z,46.13
2018-09-28T14:15:42.198Z,46.20
2018-09-28T14:18:10.616Z,45.85
2018-09-28T14:20:38.961Z,46.64
2018-09-28T14:23:07.303Z,47.81
2018-09-28T14:25:35.777Z,48.08
2018-09-28T14:28:04.309Z,49.57
2018-09-28T14:30:32.625Z,49.67
2018-09-28T14:33:00.980Z,49.91
2018-09-28T14:35:29.371Z,50.01
2018-09-28T14:37:57.723Z,50.89
2018-09-28T14:40:26.128Z,52.03
2018-09-28T14:42:55.642Z,50.75
2018-09-28T14:45:24.001Z,51.29
2018-09-28T14:47:52.434Z,50.16
2018-09-28T14:50:20.833Z,48.97
2018-09-28T14:52:49.230Z,49.72
2018-09-28T14:55:18.931Z,50.29
2018-09-28T14:57:47.291Z,51.75
2018-09-28T15:00:15.714Z,51.53
2018-09-28T15:02:44.111Z,52.30
2018-09-28T15:05:12.948Z,52.42
2018-09-28T15:07:41.329Z,52.81
2018-09-28T15:10:09.728Z,52.51
2018-09-28T15:12:38.159Z,52.69
2018-09-28T15:15:06.699Z,51.50
2018-09-28T15:17:35.092Z,50.85
2018-09-28T15:20:03.436Z,51.12
2018-09-28T15:22:31.807Z,49.27
2018-09-28T15:25:00.145Z,50.42
2018-09-28T15:27:28.491Z,49.44
2018-09-28T15:29:56.837Z,49.83
2018-09-28T15:32:25.195Z,49.82
2018-09-28T15:34:53.518Z,49.40
2018-09-28T15:37:21.813Z,50.34
2018-09-28T15:39:50.167Z,49.67
2018-09-28T15:42:18.534Z,49.57
2018-09-28T15:44:46.892Z,49.12
2018-09-28T15:47:15.191Z,47.76
2018-09-28T15:49:43.541Z,47.75
2018-09-28T15:52:11.860Z,47.35
2018-09-28T15:54:40.228Z,46.91
2018-09-28T15:57:09.845Z,46.87
2018-09-28T15:59:38.223Z,45.85
2018-09-28T16:02:06.970Z,44.93
2018-09-28T16:04:35.341Z,45.40
2018-09-28T16:07:03.768Z,44.37
2018-09-28T16:09:32.249Z,44.55
2018-09-28T16:12:00.577Z,45.74
2018-09-28T16:14:28.956Z,45.72
2018-09-28T16:16:57.366Z,46.07
2018-09-28T16:19:26.094Z,45.75
2018-09-28T16:21:54.464Z,45.99
2018-09-28T16:24:22.809Z,47.36
2018-09-28T16:26:51.136Z,46.90
2018-09-28T16:29:19.502Z,47.69
2018-09-28T16:31:47.858Z,48.40
2018-09-28T16:34:16.216Z,49.38
2018-09-28T16:36:44.544Z,51.09
2018-09-28T16:39:13.093Z,52.28
2018-09-28T16:41:42.003Z,53.09
2018-09-28T16:44:10.371Z,53.50
2018-09-28T16:46:38.722Z,53.93
2018-09-28T16:49:07.056Z,53.97
2018-09-28T16:51:35.423Z,53.62
2018-09-28T16:54:04.537Z,54.01
2018-09-28T16:56:32.891Z,53.72
2018-09-28T16:59:01.323Z,53.73
2018-09-28T17:01:29.715Z,54.20
2018-09-28T17:03:58.027Z,54.39
2018-09-28T17:06:26.425Z,53.84
2018-09-28T17:08:54.767Z,54.66
2018-09-28T17:11:23.079Z,54.82
2018-09-28T17:13:51.427Z,54.66
2018-09-28T17:16:19.759Z,55.31
2018-09-28T17:18:48.106Z,54.99
2018-09-28T17:21:16.436Z,55.65
2018-09-28T17:23:44.772Z,55.93
2018-09-28T17:26:13.093Z,56.37
2018-09-28T17:28:41.510Z,56.53
2018-09-28T17:31:09.809Z,57.10
2018-09-28T17:33:38.165Z,57.58
2018-09-28T17:36:06.475Z,57.48
2018-09-28T17:38:34.788Z,57.50
2018-09-28T17:41:03.104Z,58.03
2018-09-28T17:43:31.431Z,58.56
2018-09-28T17:45:59.791Z,58.58
2018-09-28T17:48:28.200Z,59.60
2018-09-28T17:50:56.497Z,59.51
2018-09-28T17:53:25.353Z,59.84
2018-09-28T17:55:53.648Z,59.53
2018-09-28T17:58:21.996Z,60.11
2018-09-28T18:00:50.351Z,60.36
2018-09-28T18:03:18.661Z,60.26
2018-09-28T18:05:47.008Z,60.85
2018-09-28T18:08:15.361Z,60.59
2018-09-28T18:10:43.768Z,61.21
2018-09-28T18:13:12.064Z,61.78
2018-09-28T18:15:40.345Z,60.97
2018-09-28T18:18:08.666Z,61.53
2018-09-28T18:20:36.973Z,61.51
2018-09-28T18:23:06.135Z,62.25
2018-09-28T18:25:35.168Z,62.33
2018-09-28T18:28:03.493Z,62.10
2018-09-28T18:30:31.826Z,62.09
2018-09-28T18:33:00.148Z,62.69
2018-09-28T18:35:28.874Z,62.79
2018-09-28T18:37:57.216Z,62.68
2018-09-28T18:40:25.835Z,63.47
2018-09-28T18:42:54.156Z,63.32
2018-09-28T18:45:22.553Z,63.07
2018-09-28T18:47:50.847Z,63.51
2018-09-28T18:50:19.175Z,63.57
2018-09-28T18:52:47.455Z,63.38
2018-09-28T18:55:15.797Z,63.59
2018-09-28T18:57:44.108Z,63.99
2018-09-28T19:00:12.412Z,64.32
2018-09-28T19:02:40.893Z,64.25
2018-09-28T19:05:09.416Z,64.83
2018-09-28T19:07:37.775Z,64.93
2018-09-28T19:10:06.288Z,64.67
2018-09-28T19:12:49.541Z,64.75
2018-09-28T19:15:21.598Z,65.52
2018-09-28T19:17:50.128Z,65.32
2018-09-28T19:20:18.461Z,65.21
2018-09-28T19:22:46.983Z,65.30
2018-09-28T19:25:15.311Z,65.00
2018-09-28T19:27:43.638Z,65.36
2018-09-28T19:30:11.990Z,65.08
2018-09-28T19:32:40.520Z,64.87
2018-09-28T19:35:08.876Z,65.60
2018-09-28T19:37:37.996Z,65.45
2018-09-28T19:40:06.343Z,65.24
2018-09-28T19:42:34.633Z,65.01
2018-09-28T19:45:02.958Z,65.62
2018-09-28T19:47:31.582Z,65.44
2018-09-28T19:49:59.927Z,66.00
2018-09-28T19:52:28.496Z,65.39
2018-09-28T19:54:56.918Z,65.48
2018-09-28T19:57:25.200Z,66.33
2018-09-28T19:59:53.509Z,66.15
2018-09-28T20:02:21.857Z,66.21
2018-09-28T20:04:50.167Z,66.51
2018-09-28T20:07:18.443Z,66.53
2018-09-28T20:09:46.804Z,66.34
2018-09-28T20:12:15.109Z,66.19
2018-09-28T20:14:47.238Z,66.29
2018-09-28T20:17:15.539Z,66.31
2018-09-28T20:19:43.846Z,66.62
2018-09-28T20:22:13.681Z,66.22
2018-09-28T20:24:41.985Z,66.27
2018-09-28T20:27:10.354Z,66.90
2018-09-28T20:29:38.687Z,67.08
2018-09-28T20:32:07.046Z,67.39
2018-09-28T20:34:35.385Z,67.06
2018-09-28T20:37:03.862Z,66.90
2018-09-28T20:39:32.139Z,67.18
2018-09-28T20:42:00.469Z,66.80
2018-09-28T20:44:28.820Z,67.35
2018-09-28T20:46:57.311Z,67.70
2018-09-28T20:49:25.647Z,67.53
2018-09-28T20:51:53.958Z,67.69
2018-09-28T20:54:22.253Z,67.42
2018-09-28T20:56:50.653Z,67.61
2018-09-28T20:59:19.212Z,67.49
2018-09-28T21:01:47.480Z,67.92
2018-09-28T21:04:15.846Z,67.48
2018-09-28T21:06:44.208Z,67.66
2018-09-28T21:09:12.564Z,68.01
2018-09-28T21:11:40.895Z,67.93
2018-09-28T21:14:09.208Z,68.46
2018-09-28T21:16:37.538Z,68.42
2018-09-28T21:19:05.887Z,68.56
2018-09-28T21:21:34.247Z,68.54
2018-09-28T21:24:02.560Z,69.09
2018-09-28T21:26:30.919Z,69.21
2018-09-28T21:28:59.334Z,69.13
2018-09-28T21:31:27.650Z,69.59
2018-09-28T21:33:55.944Z,68.99
2018-09-28T21:36:24.236Z,69.01
2018-09-28T21:38:52.536Z,69.48
2018-09-28T21:41:20.904Z,69.14
2018-09-28T21:43:49.249Z,69.92
2018-09-28T21:46:17.540Z,69.08
2018-09-28T21:48:45.887Z,69.06
2018-09-28T21:51:14.180Z,69.43
2018-09-28T21:53:42.563Z,69.81
2018-09-28T21:56:10.941Z,69.87
2018-09-28T21:58:39.262Z,69.63
2018-09-28T22:01:07.814Z,69.58
2018-09-28T22:03:36.157Z,69.22
2018-09-28T22:06:04.545Z,69.97
2018-09-28T22:08:32.852Z,69.23
2018-09-28T22:11:01.193Z,69.58
2018-09-28T22:13:53.425Z,69.83
2018-09-28T22:16:22.336Z,69.54
2018-09-28T22:18:50.653Z,69.46
2018-09-28T22:21:18.968Z,69.26
2018-09-28T22:23:47.313Z,69.26
2018-09-28T22:26:15.619Z,68.99
2018-09-28T22:28:43.928Z,69.13
2018-09-28T22:31:12.281Z,69.56
2018-09-28T22:33:40.613Z,69.76
2018-09-28T22:36:08.957Z,69.64
2018-09-28T22:38:37.254Z,69.98
2018-09-28T22:41:05.610Z,69.97
2018-09-28T22:43:34.128Z,70.60
2018-09-28T22:46:02.470Z,70.86
2018-09-28T22:48:30.772Z,71.42
2018-09-28T22:50:59.057Z,71.59
2018-09-28T22:53:27.566Z,72.37
2018-09-28T22:55:55.896Z,73.03
2018-09-28T22:58:24.211Z,73.33
2018-09-28T23:00:52.532Z,73.68
2018-09-28T23:03:20.856Z,74.53
2018-09-28T23:05:49.138Z,74.60
2018-09-28T23:08:17.520Z,74.99
2018-09-28T23:10:45.855Z,75.15
2018-09-28T23:13:14.191Z,75.87
2018-09-28T23:15:42.480Z,75.26
2018-09-28T23:18:10.866Z,76.12
2018-09-28T23:20:39.166Z,76.04
2018-09-28T23:23:07.453Z,76.24
2018-09-28T23:25:35.758Z,76.26
2018-09-28T23:28:04.089Z,76.54
2018-09-28T23:30:32.383Z,76.62
2018-09-28T23:33:00.697Z,77.71
2018-09-28T23:35:29.128Z,77.02
2018-09-28T23:37:57.585Z,77.42
2018-09-28T23:40:25.890Z,77.29
2018-09-28T23:42:54.331Z,77.91
2018-09-28T23:45:23.044Z,78.20
2018-09-28T23:47:51.364Z,78.46
2018-09-28T23:50:19.651Z,78.31
2018-09-28T23:52:47.954Z,78.88
2018-09-28T23:55:16.262Z,78.27
2018-09-28T23:57:44.650Z,78.92
